world map with GOT marked

GOT - Airport

This information may not be accurate or current and is not valid for navigation or flight planning. No warranty of fitness for any purpose is made or implied.

flag of Sweden

Donate via PayPal

Additional information is available on the NEW Great Circle Mapper

Location
City:  Göteborg, Västra Götalands län, Sweden
Near (Alt.):Gothenburg
Name:Landvetter
ICAO / IATA:ESGG / GOT

Details
Type:Airport (Aerodrome, Airfield)
Use:Public/Civil
Latitude:57°39'46"N (57.662836)
Longitude:12°16'47"E (12.279819)
Datum:WGS 1984
Elevation:506 ft (154 m)
Runways:1
Longest:10823 × 148 ft (3299 × 45 m)

Time
Timezone:UTC+1 (DST+4)
Local Time:

Weather
METAR:ESGG  220620Z 10007KT CAVOK 16/11 Q1019
TAF:ESGG  220530Z 2206/2306 12006KT CAVOK= TAF ESKN 220530Z 2206/2306 VRB02KT CAVOK BECMG 2210/2212 15010KT

Related Locations
Nearby:
Farthest:CHT: 11402 mi / 18349 km
Waitangi [Tuuta], CIT, NZ

Find:

   beyond  
but within

Other Information
Maps:
Links:
Sources:

  


 


Great Circle Mapper   Great Circle Mapper
Great Circle Mapper FAQ   Great Circle Mapper FAQ
  Karl's Home Page
KLS²   KLS² Home
   GC on Facebook
Airlines of the World   Airlines of the World
Donate via PayPal


Copyright © 2004-2017, Karl L. Swartz. All rights reserved.
All trademarks mentioned herein belong to their respective owners.

Please see credits for attribution and copyright information.

Karl Swartz <karl@kls2.com>
  Powered by FreeBSD
Valid HTML 4.01!
Labeled with ICRA
hCard Microformat
Geo Microformat